Terminal Aerodrome Forecast
Issued by NWS Mt. Holly, NJ

Home | Current Version | Previous Version | Text Only | Print | Product List | Glossary On
Versions: 1 2 3 4 5 6 7 8 9 10 11 12 13 14 15 16
000
FTUS41 KPHI 012300 RRA
TAFTTN
TAF
KTTN 012344Z 0200/0224 00000KT P6SM OVC045
      TEMPO 0200/0202 2SM -SHSN OVC020
     FM020200 13005KT 4SM -SN OVC040
      TEMPO 0204/0206 3/4SM -SN BR OVC010
     FM020600 13008KT 2SM -SN BR OVC015
      TEMPO 0207/0209 -FZRASN OVC007
     FM020900 14010KT 2SM RA OVC007
      TEMPO 0209/0213 1SM +RA OVC004
     FM021600 24008KT 3SM -RADZ BR OVC006
     FM022100 31020G35KT P6SM BKN025
      TEMPO 0221/0223 1SM -SHSN OVC012=

USA.gov is the U.S. government's official web portal to all federal, state and local government web resources and services.